createdAt,value
2019-04-23T00:00:56.211Z,38.49
2019-04-23T00:01:50.946Z,38.39
2019-04-23T00:02:48.858Z,38.49
2019-04-23T00:03:51.682Z,38.39
2019-04-23T00:05:48.143Z,39.15
2019-04-23T00:07:03.520Z,39.15
2019-04-23T00:10:01.320Z,39.35
2019-04-23T00:10:51.528Z,39.35
2019-04-23T00:11:54.387Z,39.35
2019-04-23T00:12:47.785Z,39.44
2019-04-23T00:13:49.971Z,39.35
2019-04-23T00:14:55.000Z,39.35
2019-04-23T00:16:00.363Z,39.15
2019-04-23T00:16:54.521Z,39.25
2019-04-23T00:17:48.949Z,39.54
2019-04-23T00:18:46.448Z,39.64
2019-04-23T00:19:55.675Z,39.64
2019-04-23T00:20:48.017Z,39.64
2019-04-23T00:22:51.693Z,39.64
2019-04-23T00:23:53.385Z,39.35
2019-04-23T00:25:53.701Z,39.61
2019-04-23T00:26:52.230Z,39.81
2019-04-23T00:27:50.409Z,39.90
2019-04-23T00:29:56.229Z,39.90
2019-04-23T00:30:58.222Z,39.81
2019-04-23T00:31:49.890Z,40.00
2019-04-23T00:32:46.164Z,40.00
2019-04-23T00:33:52.725Z,40.19
2019-04-23T00:34:54.635Z,39.90
2019-04-23T00:35:49.830Z,40.09
2019-04-23T00:36:51.712Z,40.28
2019-04-23T00:37:47.694Z,40.09
2019-04-23T00:39:01.340Z,40.47
2019-04-23T00:40:55.694Z,40.66
2019-04-23T00:41:55.316Z,40.76
2019-04-23T00:42:47.902Z,40.66
2019-04-23T00:43:54.943Z,40.66
2019-04-23T00:44:51.765Z,40.76
2019-04-23T00:45:49.853Z,40.95
2019-04-23T00:46:48.973Z,40.86
2019-04-23T00:47:52.604Z,40.57
2019-04-23T00:49:03.611Z,40.86
2019-04-23T00:50:58.483Z,40.83
2019-04-23T00:51:50.086Z,41.22
2019-04-23T00:52:50.668Z,41.41
2019-04-23T00:54:06.054Z,41.41
2019-04-23T00:54:57.518Z,41.31
2019-04-23T00:56:03.650Z,41.41
2019-04-23T00:56:53.770Z,41.31
2019-04-23T00:57:48.723Z,41.69
2019-04-23T00:58:51.010Z,41.60
2019-04-23T00:59:53.649Z,41.69
2019-04-23T01:01:18.329Z,41.79
2019-04-23T01:01:56.752Z,41.60
2019-04-23T01:02:53.371Z,41.60
2019-04-23T01:03:51.873Z,42.08
2019-04-23T01:04:59.666Z,41.98
2019-04-23T01:05:47.458Z,41.79
2019-04-23T01:06:52.344Z,41.79
2019-04-23T01:07:56.347Z,41.98
2019-04-23T01:08:52.377Z,41.98
2019-04-23T01:09:52.736Z,42.17
2019-04-23T01:10:54.020Z,42.17
2019-04-23T01:11:53.504Z,42.27
2019-04-23T01:12:55.430Z,42.46
2019-04-23T01:13:48.963Z,42.55
2019-04-23T01:14:53.357Z,42.55
2019-04-23T01:15:53.630Z,42.36
2019-04-23T01:16:42.580Z,42.55
2019-04-23T01:17:53.113Z,42.93
2019-04-23T01:18:51.481Z,42.65
2019-04-23T01:19:49.506Z,42.93
2019-04-23T01:20:51.976Z,42.74
2019-04-23T01:21:28.441Z,42.74
2019-04-23T01:22:29.285Z,42.65
2019-04-23T01:23:37.759Z,42.93
2019-04-23T01:24:31.482Z,43.03
2019-04-23T01:25:36.427Z,43.20
2019-04-23T01:26:57.621Z,43.32
2019-04-23T01:28:55.752Z,43.13
2019-04-23T01:29:58.540Z,43.22
2019-04-23T01:30:55.341Z,43.60
2019-04-23T01:31:53.546Z,43.60
2019-04-23T01:33:09.242Z,43.70
2019-04-23T01:33:51.783Z,43.60
2019-04-23T01:34:56.225Z,43.22
2019-04-23T01:36:06.166Z,43.41
2019-04-23T01:36:54.605Z,43.32
2019-04-23T01:37:52.340Z,43.49
2019-04-23T01:38:55.695Z,43.39
2019-04-23T01:40:50.373Z,43.49
2019-04-23T01:41:58.017Z,43.96
2019-04-23T01:42:49.204Z,43.68
2019-04-23T01:43:53.544Z,43.96
2019-04-23T01:45:05.000Z,44.06
2019-04-23T01:45:51.105Z,44.34
2019-04-23T01:46:56.125Z,44.06
2019-04-23T01:47:55.830Z,44.53
2019-04-23T01:48:52.223Z,44.44
2019-04-23T01:50:54.595Z,44.25
2019-04-23T01:51:54.912Z,44.44
2019-04-23T01:53:51.546Z,44.44
2019-04-23T01:54:52.796Z,44.73
2019-04-23T01:55:52.755Z,44.63
2019-04-23T01:56:49.447Z,44.73
2019-04-23T01:59:58.418Z,45.10
2019-04-23T02:00:53.234Z,44.92
2019-04-23T02:02:55.480Z,45.47
2019-04-23T02:03:58.250Z,45.37
2019-04-23T02:05:07.597Z,45.28
2019-04-23T02:05:55.826Z,45.47
2019-04-23T02:06:50.512Z,45.08
2019-04-23T02:07:56.976Z,45.18
2019-04-23T02:08:53.592Z,45.65
2019-04-23T02:09:55.329Z,45.47
2019-04-23T02:10:58.694Z,45.94
2019-04-23T02:11:52.544Z,45.84
2019-04-23T02:12:57.043Z,46.32
2019-04-23T02:14:08.291Z,46.13
2019-04-23T02:14:59.404Z,46.13
2019-04-23T02:15:55.480Z,46.23
2019-04-23T02:16:50.387Z,46.42
2019-04-23T02:17:58.005Z,46.42
2019-04-23T02:19:11.374Z,46.42
2019-04-23T02:20:02.333Z,46.89
2019-04-23T02:20:57.644Z,46.80
2019-04-23T02:22:01.174Z,47.06
2019-04-23T02:23:58.370Z,46.97
2019-04-23T02:24:55.850Z,46.97
2019-04-23T02:26:50.947Z,47.54
2019-04-23T02:27:59.872Z,47.54
2019-04-23T02:29:03.559Z,47.63
2019-04-23T02:30:10.654Z,47.63
2019-04-23T02:31:12.596Z,47.25
2019-04-23T02:33:15.044Z,47.73
2019-04-23T02:40:06.236Z,47.63
2019-04-23T02:41:04.783Z,47.73
2019-04-23T02:42:07.768Z,47.82
2019-04-23T02:44:04.857Z,47.63
2019-04-23T02:44:57.505Z,47.82
2019-04-23T02:46:02.407Z,47.92
2019-04-23T02:48:10.770Z,48.21
2019-04-23T02:50:11.167Z,48.49
2019-04-23T02:51:59.243Z,48.68
2019-04-23T02:53:05.207Z,49.06
2019-04-23T02:54:08.528Z,49.06
2019-04-23T02:55:03.785Z,49.04
2019-04-23T02:56:05.396Z,49.42
2019-04-23T02:58:06.101Z,49.13
2019-04-23T02:59:02.201Z,49.42
2019-04-23T03:02:05.801Z,49.61
2019-04-23T03:03:14.063Z,49.71
2019-04-23T03:04:00.896Z,49.80
2019-04-23T03:04:58.081Z,49.90
2019-04-23T03:07:11.701Z,49.90
2019-04-23T03:08:00.627Z,50.27
2019-04-23T03:08:54.870Z,50.75
2019-04-23T03:10:03.271Z,50.66
2019-04-23T03:11:56.790Z,51.20
2019-04-23T03:13:19.435Z,50.73
2019-04-23T03:14:00.317Z,51.58
2019-04-23T03:15:14.458Z,51.10
2019-04-23T03:16:08.481Z,51.58
2019-04-23T03:16:58.428Z,51.68
2019-04-23T03:18:11.767Z,51.78
2019-04-23T03:20:10.633Z,52.63
2019-04-23T03:21:15.614Z,52.06
2019-04-23T03:21:59.396Z,52.22
2019-04-23T03:23:03.353Z,52.89
2019-04-23T03:24:03.416Z,52.80
2019-04-23T03:26:00.182Z,53.36
2019-04-23T03:27:10.337Z,52.89
2019-04-23T03:28:04.101Z,53.08
2019-04-23T03:29:04.006Z,53.46
2019-04-23T03:30:49.201Z,53.75
2019-04-23T03:32:30.750Z,53.75
2019-04-23T03:38:05.872Z,54.41
2019-04-23T03:40:07.712Z,55.15
2019-04-23T03:41:08.935Z,54.57
2019-04-23T03:42:02.946Z,54.57
2019-04-23T03:43:46.448Z,54.77
2019-04-23T03:46:11.830Z,55.43
2019-04-23T03:47:16.239Z,55.33
2019-04-23T03:48:02.180Z,55.05
2019-04-23T03:48:51.188Z,55.52
2019-04-23T03:50:15.489Z,55.52
2019-04-23T03:50:52.888Z,55.90
2019-04-23T03:52:07.383Z,56.29
2019-04-23T03:52:54.799Z,56.19
2019-04-23T03:54:21.884Z,56.00
2019-04-23T03:54:48.708Z,56.38
2019-04-23T03:56:03.833Z,56.76
2019-04-23T03:57:54.133Z,56.57
2019-04-23T03:58:58.234Z,57.14
2019-04-23T04:00:58.979Z,56.95
2019-04-23T04:03:27.879Z,57.04
2019-04-23T04:04:20.267Z,56.85
2019-04-23T04:04:49.870Z,57.24
2019-04-23T04:08:10.298Z,57.68
2019-04-23T04:09:13.242Z,57.40
2019-04-23T04:09:51.782Z,57.50
2019-04-23T04:11:09.607Z,57.87
2019-04-23T04:11:57.276Z,58.06
2019-04-23T04:12:59.182Z,58.16
2019-04-23T04:14:30.109Z,58.06
2019-04-23T04:15:10.517Z,58.06
2019-04-23T04:16:00.758Z,58.44
2019-04-23T04:18:11.017Z,58.63
2019-04-23T04:19:56.280Z,58.83
2019-04-23T04:21:01.146Z,58.73
2019-04-23T04:22:00.739Z,58.73
2019-04-23T04:23:15.399Z,58.92
2019-04-23T04:24:05.063Z,58.73
2019-04-23T04:25:01.670Z,58.54
2019-04-23T04:26:16.304Z,59.01
2019-04-23T04:28:01.334Z,59.01
2019-04-23T04:29:00.611Z,59.11
2019-04-23T04:30:01.021Z,59.01
2019-04-23T04:30:52.175Z,59.49
2019-04-23T04:33:09.403Z,59.77
2019-04-23T04:36:08.275Z,59.77
2019-04-23T04:37:26.710Z,59.96
2019-04-23T04:38:04.267Z,59.96
2019-04-23T04:38:57.104Z,59.96
2019-04-23T04:41:56.873Z,60.25
2019-04-23T04:43:09.201Z,60.53
2019-04-23T04:44:17.039Z,60.35
2019-04-23T04:45:00.046Z,60.44
2019-04-23T04:47:14.838Z,60.82
2019-04-23T04:48:55.798Z,61.20
2019-04-23T04:51:04.205Z,61.01
2019-04-23T04:52:13.493Z,61.01
2019-04-23T04:54:55.963Z,61.29
2019-04-23T04:56:10.167Z,61.58
2019-04-23T04:59:07.687Z,61.68
2019-04-23T05:03:45.102Z,61.87
2019-04-23T05:05:05.306Z,61.58
2019-04-23T05:11:05.386Z,61.77
2019-04-23T05:12:03.609Z,62.05
2019-04-23T05:12:59.478Z,61.87
2019-04-23T05:14:00.177Z,61.96
2019-04-23T05:14:59.134Z,62.27
2019-04-23T05:15:53.914Z,62.53
2019-04-23T05:18:03.250Z,62.37
2019-04-23T05:18:52.086Z,62.18
2019-04-23T05:20:14.666Z,62.18
2019-04-23T05:21:01.923Z,62.37
2019-04-23T05:22:01.003Z,62.56
2019-04-23T05:23:09.187Z,62.56
2019-04-23T05:24:48.600Z,62.12
2019-04-23T05:25:51.249Z,62.59
2019-04-23T05:26:51.505Z,62.40
2019-04-23T05:29:01.760Z,61.93
2019-04-23T05:29:55.937Z,62.12
2019-04-23T05:30:52.153Z,62.21
2019-04-23T05:31:46.565Z,61.93
2019-04-23T05:32:45.177Z,61.86
2019-04-23T05:33:57.218Z,62.05
2019-04-23T05:34:50.321Z,61.67
2019-04-23T05:39:54.623Z,61.13
2019-04-23T05:40:53.634Z,61.13
2019-04-23T05:41:52.557Z,61.04
2019-04-23T05:42:56.419Z,60.85
2019-04-23T05:43:54.713Z,60.94
2019-04-23T05:44:57.133Z,60.59
2019-04-23T05:45:46.514Z,60.21
2019-04-23T05:46:52.175Z,60.02
2019-04-23T05:48:52.290Z,59.76
2019-04-23T05:49:55.044Z,59.38
2019-04-23T05:50:57.833Z,59.38
2019-04-23T05:52:57.759Z,59.19
2019-04-23T05:55:55.277Z,58.81
2019-04-23T05:57:01.783Z,58.94
2019-04-23T05:57:53.649Z,58.46
2019-04-23T05:58:54.543Z,58.46
2019-04-23T05:59:48.515Z,58.46
2019-04-23T06:00:54.474Z,57.98
2019-04-23T06:03:02.612Z,57.70
2019-04-23T06:03:58.247Z,57.50
2019-04-23T06:04:49.633Z,57.63
2019-04-23T06:05:54.270Z,57.15
2019-04-23T06:07:10.838Z,57.34
2019-04-23T06:07:51.258Z,57.15
2019-04-23T06:08:53.326Z,57.06
2019-04-23T06:09:56.333Z,56.96
2019-04-23T06:12:55.812Z,56.38
2019-04-23T06:13:52.507Z,56.01
2019-04-23T06:14:55.833Z,56.20
2019-04-23T06:16:12.292Z,56.60
2019-04-23T06:16:49.281Z,56.04
2019-04-23T06:17:47.442Z,56.04
2019-04-23T06:18:57.602Z,55.75
2019-04-23T06:19:49.811Z,55.46
2019-04-23T06:21:57.490Z,55.36
2019-04-23T06:22:51.204Z,55.11
2019-04-23T06:23:55.730Z,55.30
2019-04-23T06:24:49.198Z,54.91
2019-04-23T06:27:54.943Z,54.63
2019-04-23T06:28:58.162Z,55.01
2019-04-23T06:29:50.086Z,54.25
2019-04-23T06:30:56.008Z,54.15
2019-04-23T06:31:50.693Z,54.44
2019-04-23T06:32:46.456Z,54.37
2019-04-23T06:33:52.364Z,54.37
2019-04-23T06:34:48.397Z,54.47
2019-04-23T06:35:53.141Z,54.27
2019-04-23T06:38:16.267Z,54.08
2019-04-23T06:38:53.396Z,53.89
2019-04-23T06:39:49.846Z,53.61
2019-04-23T06:40:50.317Z,53.70
2019-04-23T06:41:50.047Z,53.70
2019-04-23T06:42:45.772Z,53.70
2019-04-23T06:43:56.422Z,53.51
2019-04-23T06:45:01.178Z,53.32
2019-04-23T06:45:45.902Z,53.51
2019-04-23T06:46:56.761Z,52.84
2019-04-23T06:47:46.432Z,53.03
2019-04-23T06:48:47.752Z,53.03
2019-04-23T06:49:54.468Z,53.13
2019-04-23T06:52:45.528Z,53.06
2019-04-23T06:53:43.733Z,52.87
2019-04-23T06:54:56.007Z,52.39
2019-04-23T06:55:49.447Z,52.39
2019-04-23T06:57:00.591Z,52.58
2019-04-23T06:57:49.730Z,52.20
2019-04-23T06:58:47.284Z,52.10
2019-04-23T06:59:52.679Z,52.10
2019-04-23T07:00:51.265Z,52.20
2019-04-23T07:01:53.246Z,52.10
2019-04-23T07:03:08.843Z,52.10
2019-04-23T07:03:55.738Z,51.91
2019-04-23T07:04:56.918Z,51.72
2019-04-23T07:05:55.461Z,51.62
2019-04-23T07:06:58.350Z,52.10
2019-04-23T07:08:02.887Z,51.81
2019-04-23T07:09:05.187Z,51.62
2019-04-23T07:09:43.906Z,52.13
2019-04-23T07:10:54.295Z,51.75
2019-04-23T07:11:42.826Z,51.84
2019-04-23T07:12:50.673Z,51.65
2019-04-23T07:14:51.763Z,51.75
2019-04-23T07:16:46.496Z,51.27
2019-04-23T07:17:51.859Z,51.17
2019-04-23T07:18:50.314Z,50.89
2019-04-23T07:19:48.345Z,50.70
2019-04-23T07:20:50.048Z,50.89
2019-04-23T07:21:54.493Z,50.91
2019-04-23T07:22:49.973Z,50.62
2019-04-23T07:23:59.176Z,50.05
2019-04-23T07:24:49.513Z,50.34
2019-04-23T07:25:55.919Z,49.95
2019-04-23T07:27:49.373Z,49.98
2019-04-23T07:29:56.788Z,49.31
2019-04-23T07:30:51.566Z,49.60
2019-04-23T07:32:49.731Z,49.21
2019-04-23T07:34:57.395Z,49.02
2019-04-23T07:35:51.895Z,48.54
2019-04-23T07:36:47.333Z,48.75
2019-04-23T07:37:54.534Z,48.85
2019-04-23T07:38:54.728Z,48.09
2019-04-23T07:39:58.993Z,48.28
2019-04-23T07:40:50.080Z,48.09
2019-04-23T07:41:56.034Z,48.09
2019-04-23T07:42:55.161Z,47.99
2019-04-23T07:43:54.550Z,47.71
2019-04-23T07:44:48.452Z,47.71
2019-04-23T07:45:57.580Z,48.09
2019-04-23T07:47:59.460Z,47.51
2019-04-23T07:48:48.024Z,47.53
2019-04-23T07:50:07.990Z,46.96
2019-04-23T07:50:49.163Z,47.25
2019-04-23T07:51:59.049Z,47.25
2019-04-23T07:53:01.915Z,47.63
2019-04-23T07:54:06.273Z,46.79
2019-04-23T07:54:58.784Z,46.79
2019-04-23T07:56:07.606Z,46.70
2019-04-23T07:56:53.830Z,46.50
2019-04-23T07:57:51.927Z,46.60
2019-04-23T07:58:44.672Z,46.12
2019-04-23T08:01:51.137Z,46.03
2019-04-23T08:02:50.129Z,46.34
2019-04-23T08:03:48.219Z,45.57
2019-04-23T08:05:13.767Z,45.76
2019-04-23T08:05:44.090Z,45.18
2019-04-23T08:06:57.795Z,45.09
2019-04-23T08:07:49.743Z,44.61
2019-04-23T08:08:52.668Z,45.09
2019-04-23T08:09:56.574Z,45.47
2019-04-23T08:11:10.995Z,45.57
2019-04-23T08:11:49.273Z,45.47
2019-04-23T08:12:48.089Z,45.67
2019-04-23T08:13:55.677Z,44.80
2019-04-23T08:14:53.473Z,44.82
2019-04-23T08:15:48.072Z,44.42
2019-04-23T08:16:49.939Z,44.80
2019-04-23T08:17:43.450Z,44.61
2019-04-23T08:19:25.487Z,44.80
2019-04-23T08:19:56.338Z,44.70
2019-04-23T08:20:50.867Z,44.70
2019-04-23T08:21:48.023Z,44.42
2019-04-23T08:22:45.791Z,44.13
2019-04-23T08:23:50.673Z,44.42
2019-04-23T08:25:56.402Z,44.61
2019-04-23T08:27:48.540Z,44.61
2019-04-23T08:28:58.481Z,44.42
2019-04-23T08:29:47.699Z,44.61
2019-04-23T08:30:49.989Z,44.70
2019-04-23T08:31:50.370Z,44.80
2019-04-23T08:32:52.168Z,44.70
2019-04-23T08:33:59.702Z,44.61
2019-04-23T08:34:51.714Z,44.70
2019-04-23T08:35:51.378Z,44.61
2019-04-23T08:36:50.170Z,44.32
2019-04-23T08:38:54.833Z,44.54
2019-04-23T08:40:59.147Z,43.87
2019-04-23T08:43:09.393Z,43.57
2019-04-23T08:44:11.283Z,43.67
2019-04-23T08:45:01.279Z,43.48
2019-04-23T08:45:46.247Z,43.87
2019-04-23T08:46:56.751Z,43.67
2019-04-23T08:47:54.638Z,43.48
2019-04-23T08:48:55.999Z,43.67
2019-04-23T08:49:47.683Z,43.77
2019-04-23T08:50:44.115Z,43.48
2019-04-23T08:51:54.774Z,43.50
2019-04-23T08:53:00.155Z,43.40
2019-04-23T08:54:04.379Z,43.02
2019-04-23T08:55:02.206Z,43.21
2019-04-23T08:55:50.159Z,43.02
2019-04-23T08:57:43.121Z,43.02
2019-04-23T08:59:06.964Z,42.93
2019-04-23T09:00:53.811Z,43.02
2019-04-23T09:01:57.954Z,43.02
2019-04-23T09:02:51.542Z,42.83
2019-04-23T09:04:00.373Z,42.94
2019-04-23T09:04:53.877Z,42.66
2019-04-23T09:05:54.363Z,42.85
2019-04-23T09:07:00.779Z,42.76
2019-04-23T09:07:58.521Z,42.27
2019-04-23T09:08:44.241Z,42.47
2019-04-23T09:09:50.801Z,42.39
2019-04-23T09:10:51.780Z,42.00
2019-04-23T09:11:58.003Z,41.82
2019-04-23T09:13:01.112Z,42.03
2019-04-23T09:14:51.053Z,41.06
2019-04-23T09:15:49.790Z,41.28
2019-04-23T09:16:52.538Z,41.08
2019-04-23T09:17:57.664Z,40.89
2019-04-23T09:18:51.225Z,41.08
2019-04-23T09:20:09.879Z,41.08
2019-04-23T09:20:42.985Z,41.08
2019-04-23T09:21:51.248Z,40.89
2019-04-23T09:22:45.221Z,40.70
2019-04-23T09:24:47.071Z,40.68
2019-04-23T09:25:49.930Z,40.49
2019-04-23T09:26:56.351Z,40.97
2019-04-23T09:27:44.807Z,40.97
2019-04-23T09:29:52.209Z,41.06
2019-04-23T09:30:49.585Z,41.06
2019-04-23T09:32:43.484Z,40.97
2019-04-23T09:35:02.501Z,41.35
2019-04-23T09:35:46.100Z,41.26
2019-04-23T09:36:51.687Z,40.97
2019-04-23T09:37:54.117Z,40.97
2019-04-23T09:39:54.773Z,40.89
2019-04-23T09:41:46.149Z,40.22
2019-04-23T09:43:48.557Z,40.03
2019-04-23T09:45:00.076Z,39.93
2019-04-23T09:45:48.816Z,39.83
2019-04-23T09:46:57.307Z,39.93
2019-04-23T09:47:53.715Z,39.93
2019-04-23T09:48:53.597Z,40.03
2019-04-23T09:49:50.806Z,40.22
2019-04-23T09:50:49.459Z,40.12
2019-04-23T09:51:56.296Z,40.22
2019-04-23T09:53:01.377Z,39.95
2019-04-23T09:53:59.440Z,39.86
2019-04-23T09:54:57.725Z,39.54
2019-04-23T09:55:46.594Z,39.54
2019-04-23T09:56:47.781Z,39.28
2019-04-23T09:57:50.041Z,38.78
2019-04-23T09:58:49.654Z,38.78
2019-04-23T09:59:48.950Z,38.87
2019-04-23T10:01:34.522Z,38.99
2019-04-23T10:02:33.928Z,38.97
2019-04-23T10:03:38.196Z,38.87
2019-04-23T10:04:36.881Z,38.79
2019-04-23T10:05:30.879Z,38.70
2019-04-23T10:06:24.940Z,38.79
2019-04-23T10:07:34.929Z,38.59
2019-04-23T10:08:27.929Z,38.39
2019-04-23T10:09:22.268Z,38.68
2019-04-23T10:10:20.802Z,38.49
2019-04-23T10:11:22.044Z,38.97
2019-04-23T10:12:22.026Z,39.04
2019-04-23T10:13:21.915Z,39.33
2019-04-23T10:14:20.794Z,39.36
2019-04-23T10:15:24.987Z,39.26
2019-04-23T10:16:23.314Z,39.06
2019-04-23T10:17:20.761Z,39.06
2019-04-23T10:18:20.383Z,38.97
2019-04-23T10:19:20.376Z,39.45
2019-04-23T10:20:20.649Z,38.49
2019-04-23T10:21:21.479Z,38.78
2019-04-23T10:22:20.343Z,38.87
2019-04-23T10:23:21.291Z,38.78
2019-04-23T10:24:21.055Z,38.68
2019-04-23T10:25:21.055Z,38.99
2019-04-23T10:26:21.740Z,38.99
2019-04-23T10:27:21.115Z,38.99
2019-04-23T10:28:22.125Z,38.81
2019-04-23T10:29:20.282Z,38.35
2019-04-23T10:30:21.721Z,38.26
2019-04-23T10:31:20.901Z,37.48
2019-04-23T10:32:21.745Z,37.31
2019-04-23T10:33:21.310Z,37.31
2019-04-23T10:34:21.136Z,37.33
2019-04-23T10:35:30.342Z,36.85
2019-04-23T10:36:23.924Z,36.85
2019-04-23T10:37:31.867Z,36.46
2019-04-23T10:38:22.070Z,36.27
2019-04-23T10:39:25.809Z,36.55
2019-04-23T10:40:26.196Z,36.36
2019-04-23T10:41:20.269Z,36.07
2019-04-23T10:42:21.849Z,35.90
2019-04-23T10:43:20.663Z,36.19
2019-04-23T10:44:21.482Z,36.09
2019-04-23T10:45:34.929Z,35.92
2019-04-23T10:46:38.059Z,35.34
2019-04-23T10:47:47.764Z,35.44
2019-04-23T10:49:53.360Z,34.66
2019-04-23T10:51:00.365Z,35.13
2019-04-23T10:53:02.664Z,35.52
2019-04-23T10:53:46.815Z,35.71
2019-04-23T10:54:52.324Z,35.72
2019-04-23T10:56:07.434Z,34.86
2019-04-23T10:56:53.180Z,34.66
2019-04-23T10:57:45.084Z,34.78
2019-04-23T10:58:45.823Z,34.78
2019-04-23T10:59:45.030Z,34.48
2019-04-23T11:01:53.101Z,34.48
2019-04-23T11:03:12.291Z,34.48
2019-04-23T11:04:02.460Z,34.68
2019-04-23T11:06:08.784Z,34.39
2019-04-23T11:07:33.993Z,34.78
2019-04-23T11:08:44.033Z,34.48
2019-04-23T11:10:48.499Z,34.68
2019-04-23T11:11:56.604Z,34.48
2019-04-23T11:14:49.943Z,34.31
2019-04-23T11:16:21.850Z,34.21
2019-04-23T11:21:07.486Z,33.26
2019-04-23T11:21:52.415Z,33.45
2019-04-23T11:23:51.793Z,33.26
2019-04-23T11:24:48.823Z,33.28
2019-04-23T11:25:42.585Z,33.37
2019-04-23T11:26:49.893Z,33.18
2019-04-23T11:27:52.193Z,33.20
2019-04-23T11:28:44.932Z,32.92
2019-04-23T11:29:51.873Z,33.12
2019-04-23T11:30:41.537Z,32.65
2019-04-23T11:32:21.519Z,32.07
2019-04-23T11:32:53.816Z,31.68
2019-04-23T11:33:55.030Z,31.68
2019-04-23T11:35:03.462Z,31.60
2019-04-23T11:36:01.748Z,31.68
2019-04-23T11:36:54.306Z,31.29
2019-04-23T11:39:00.682Z,31.76
2019-04-23T11:39:53.902Z,31.67
2019-04-23T11:40:42.028Z,31.67
2019-04-23T11:41:51.277Z,32.17
2019-04-23T11:43:01.144Z,32.26
2019-04-23T11:43:46.402Z,32.07
2019-04-23T11:44:49.072Z,32.17
2019-04-23T11:49:04.730Z,31.60
2019-04-23T11:49:53.269Z,31.21
2019-04-23T11:51:24.207Z,31.32
2019-04-23T11:52:04.454Z,31.32
2019-04-23T11:53:52.880Z,31.42
2019-04-23T11:54:50.906Z,31.42
2019-04-23T11:55:59.326Z,31.34
2019-04-23T11:57:14.823Z,31.26
2019-04-23T11:58:00.225Z,30.97
2019-04-23T11:58:49.234Z,30.77
2019-04-23T12:01:03.315Z,30.48
2019-04-23T12:02:49.813Z,30.37
2019-04-23T12:03:56.463Z,30.35
2019-04-23T12:04:57.332Z,30.45
2019-04-23T12:05:52.322Z,30.55
2019-04-23T12:07:50.260Z,30.73
2019-04-23T12:08:57.101Z,30.73
2019-04-23T12:09:53.640Z,30.63
2019-04-23T12:11:10.404Z,30.73
2019-04-23T12:13:03.338Z,30.82
2019-04-23T12:13:54.581Z,30.82
2019-04-23T12:14:48.083Z,31.02
2019-04-23T12:15:49.952Z,31.31
2019-04-23T12:17:05.653Z,31.02
2019-04-23T12:18:10.837Z,30.71
2019-04-23T12:19:17.925Z,31.01
2019-04-23T12:20:49.121Z,31.18
2019-04-23T12:21:53.159Z,31.47
2019-04-23T12:22:58.768Z,31.67
2019-04-23T12:25:52.825Z,31.10
2019-04-23T12:26:53.493Z,31.10
2019-04-23T12:27:58.973Z,31.20
2019-04-23T12:28:50.116Z,31.09
2019-04-23T12:29:50.649Z,31.47
2019-04-23T12:30:57.092Z,31.47
2019-04-23T12:31:47.643Z,31.16
2019-04-23T12:33:50.252Z,31.09
2019-04-23T12:35:40.783Z,31.01
2019-04-23T12:36:46.689Z,30.91
2019-04-23T12:38:00.740Z,30.92
2019-04-23T12:38:52.478Z,30.73
2019-04-23T12:39:57.194Z,30.73
2019-04-23T12:40:45.919Z,30.54
2019-04-23T12:41:55.257Z,30.54
2019-04-23T12:42:54.024Z,30.54
2019-04-23T12:43:47.417Z,30.44
2019-04-23T12:45:00.067Z,30.44
2019-04-23T12:45:43.952Z,30.54
2019-04-23T12:47:05.732Z,30.62
2019-04-23T12:49:13.060Z,30.60
2019-04-23T12:50:05.433Z,30.69
2019-04-23T12:50:48.736Z,30.78
2019-04-23T12:51:53.799Z,30.88
2019-04-23T12:53:01.071Z,31.28
2019-04-23T12:53:39.887Z,31.09
2019-04-23T12:55:02.856Z,30.99
2019-04-23T12:55:46.451Z,31.09
2019-04-23T12:56:57.393Z,30.89
2019-04-23T12:57:46.787Z,30.81
2019-04-23T12:58:41.450Z,30.42
2019-04-23T12:59:50.104Z,30.42
2019-04-23T13:00:45.836Z,30.21
2019-04-23T13:01:48.991Z,30.23
2019-04-23T13:03:45.532Z,30.42
2019-04-23T13:04:48.678Z,30.44
2019-04-23T13:05:38.919Z,30.34
2019-04-23T13:06:44.173Z,29.95
2019-04-23T13:07:52.070Z,29.85
2019-04-23T13:09:02.803Z,29.85
2019-04-23T13:09:52.547Z,29.84
2019-04-23T13:11:52.860Z,30.13
2019-04-23T13:12:50.300Z,30.13
2019-04-23T13:14:49.572Z,29.94
2019-04-23T13:15:48.841Z,29.94
2019-04-23T13:16:53.993Z,29.95
2019-04-23T13:17:49.971Z,29.85
2019-04-23T13:22:03.314Z,29.68
2019-04-23T13:23:45.979Z,29.17
2019-04-23T13:24:48.752Z,29.47
2019-04-23T13:25:48.081Z,29.66
2019-04-23T13:26:46.527Z,29.27
2019-04-23T13:27:54.343Z,28.98
2019-04-23T13:28:48.425Z,29.16
2019-04-23T13:29:51.796Z,29.83
2019-04-23T13:31:39.745Z,30.21
2019-04-23T13:32:52.206Z,30.20
2019-04-23T13:33:58.461Z,30.29
2019-04-23T13:35:53.274Z,30.39
2019-04-23T13:36:53.809Z,30.20
2019-04-23T13:37:57.196Z,30.39
2019-04-23T13:39:43.915Z,30.39
2019-04-23T13:41:45.810Z,30.49
2019-04-23T13:42:52.408Z,30.58
2019-04-23T13:43:45.407Z,30.78
2019-04-23T13:44:52.138Z,30.66
2019-04-23T13:46:49.836Z,30.96
2019-04-23T13:47:58.531Z,31.25
2019-04-23T13:48:42.354Z,31.15
2019-04-23T13:49:54.106Z,31.16
2019-04-23T13:51:50.817Z,31.25
2019-04-23T13:54:06.018Z,31.07
2019-04-23T13:55:50.430Z,31.16
2019-04-23T13:58:53.558Z,30.71
2019-04-23T13:59:48.421Z,30.81
2019-04-23T14:00:58.170Z,30.71
2019-04-23T14:01:46.593Z,30.63
2019-04-23T14:03:46.144Z,30.54
2019-04-23T14:04:50.676Z,30.63
2019-04-23T14:05:56.820Z,30.63
2019-04-23T14:06:52.741Z,30.94
2019-04-23T14:09:54.162Z,30.84
2019-04-23T14:10:48.189Z,30.84
2019-04-23T14:11:39.577Z,30.94
2019-04-23T14:13:06.522Z,30.84
2019-04-23T14:15:04.434Z,31.02
2019-04-23T14:15:53.973Z,30.82
2019-04-23T14:17:08.518Z,30.73
2019-04-23T14:18:56.083Z,30.89
2019-04-23T14:19:45.670Z,30.89
2019-04-23T14:20:46.879Z,30.99
2019-04-23T14:21:46.959Z,31.36
2019-04-23T14:24:04.553Z,31.46
2019-04-23T14:25:59.887Z,31.56
2019-04-23T14:27:10.901Z,31.46
2019-04-23T14:27:56.603Z,31.16
2019-04-23T14:28:46.352Z,31.28
2019-04-23T14:29:56.040Z,31.28
2019-04-23T14:30:53.472Z,31.09
2019-04-23T14:31:54.908Z,31.37
2019-04-23T14:32:53.971Z,31.28
2019-04-23T14:34:54.335Z,31.09
2019-04-23T14:35:45.226Z,31.16
2019-04-23T14:36:55.721Z,31.25
2019-04-23T14:38:06.593Z,31.73
2019-04-23T14:38:54.491Z,31.73
2019-04-23T14:39:47.655Z,31.73
2019-04-23T14:40:59.198Z,31.81
2019-04-23T14:42:01.149Z,31.62
2019-04-23T14:43:58.099Z,31.60
2019-04-23T14:44:52.430Z,31.70
2019-04-23T14:46:12.179Z,31.89
2019-04-23T14:46:53.040Z,32.28
2019-04-23T14:49:59.326Z,32.56
2019-04-23T14:51:11.396Z,32.56
2019-04-23T14:53:02.057Z,33.12
2019-04-23T14:53:46.381Z,33.31
2019-04-23T14:55:22.633Z,33.20
2019-04-23T14:55:57.032Z,33.68
2019-04-23T14:56:56.881Z,33.58
2019-04-23T14:58:00.351Z,33.87
2019-04-23T14:59:46.946Z,34.06
2019-04-23T15:00:57.512Z,34.14
2019-04-23T15:01:49.088Z,33.95
2019-04-23T15:02:54.311Z,34.05
2019-04-23T15:03:46.615Z,34.05
2019-04-23T15:04:50.645Z,34.05
2019-04-23T15:06:01.945Z,34.05
2019-04-23T15:06:50.755Z,34.14
2019-04-23T15:08:06.183Z,34.05
2019-04-23T15:09:54.965Z,34.24
2019-04-23T15:11:06.337Z,34.34
2019-04-23T15:11:57.610Z,34.24
2019-04-23T15:14:51.963Z,34.44
2019-04-23T15:15:53.234Z,34.63
2019-04-23T15:17:49.607Z,34.52
2019-04-23T15:19:48.232Z,34.70
2019-04-23T15:20:46.442Z,34.80
2019-04-23T15:21:53.754Z,34.90
2019-04-23T15:23:10.725Z,35.00
2019-04-23T15:24:06.960Z,35.19
2019-04-23T15:24:56.797Z,35.30
2019-04-23T15:26:15.442Z,35.50
2019-04-23T15:28:05.308Z,35.78
2019-04-23T15:28:29.082Z,35.78
2019-04-23T15:29:32.880Z,35.50
2019-04-23T15:30:50.829Z,35.48
2019-04-23T15:31:52.005Z,35.48
2019-04-23T15:33:00.504Z,35.48
2019-04-23T15:33:55.459Z,35.58
2019-04-23T15:34:47.350Z,35.67
2019-04-23T15:38:16.408Z,36.06
2019-04-23T15:38:54.068Z,35.96
2019-04-23T15:39:58.763Z,35.96
2019-04-23T15:40:51.189Z,35.86
2019-04-23T15:42:56.161Z,36.06
2019-04-23T15:43:49.515Z,36.15
2019-04-23T15:44:48.782Z,36.06
2019-04-23T15:45:52.571Z,35.96
2019-04-23T15:46:58.082Z,36.35
2019-04-23T15:47:53.772Z,36.63
2019-04-23T15:48:55.900Z,36.73
2019-04-23T15:49:51.560Z,36.63
2019-04-23T15:52:51.471Z,36.83
2019-04-23T15:53:52.287Z,36.73
2019-04-23T15:54:48.325Z,36.73
2019-04-23T15:55:49.447Z,36.83
2019-04-23T15:56:50.541Z,36.63
2019-04-23T15:58:03.203Z,36.81
2019-04-23T15:59:14.334Z,37.12
2019-04-23T15:59:47.923Z,37.21